Hauptseite
METAR-TAF:

METAR-TAF

Flughäfen :

Flughafen Nouakchott-Oumtounsy

Nouakchott, Mauretanien

Breite: 18-18-36N, Länge: 015-58-11W, Höhe: 3 m

Beobachtung

Neuester Wetterbericht von vor 48 Minuten, um 10:30 UTC
Wind 17 kt aus Ost/Nordost
Temperatur 18°C
Luftfeuchtigkeit 49%
Luftdruck 1019 hPa
Sichtweite: 4500 m
Staubfegen

METAR: GQNO 221030Z 06017KT 4500 DRDU NSC 18/07 Q1019 NOSIG

Zeit: 11:18 (11:18 UTC)

Prognose

Neuester Wetterbericht von vor 6 Stunden und 18 Minuten, um 05:00 UTC
Gültige Prognose vom 22 um 06 UTC bis 23 um 12 UTC
Wind 13 kt aus Nordost
Sichtweite: 7000 m
Wahrscheinlichkeit 40% :
Zeitweise
vom 22 um 10 UTC bis 22 um 15 UTC
Sichtweite: 3500 m
Sandtreiben

TAF: GQNO 220500Z 2206/2312 04013KT 7000 NSC PROB40 TEMPO 2210/2215 3500 BLSA

Wetterbeobachtungen und Prognosen von mehr als 4000 Flughäfen (METAR und TAF Bericht).

Die verfügbaren Stationen werden durch gelbe und rote Markierungen auf der Karte dargestellt.

Führen Sie die Maus auf sie, um den Namen der Station zu sehen.

Darauf klicken, um die Beobachtung von Wetterbeobachtungen und Prognosen zu sehen.

Um die Karte zu ändern : klicken Sie auf den grünen Tasten mit einem schwarzen Kreuz Zum Vergrößern, auf den grünen Button mit einem Gedankenstrich zu verkleinern, oder auf die grünen Pfeile für benachbarte Karten.


METAR-TAF: